Time;durP1;ratioP1;P1;durP2;ratioP2;P2;SDS_P1;SDS_P2;PMS_P1;PMS_P2;Temp;Humidity;BMP_temperature;BMP_pressure;BME280_temperature;BME280_humidity;BME280_pressure;Samples;Min_cycle;Max_cycle;Signal;HPM_P1;HPM_P2
2023/01/13 00:00:54;;;;;;;24.20;18.93;;;;;19.70;99346.00;;;;2079277;28;20225;-53
2023/01/13 00:01:54;;;;;;;22.30;18.23;;;;;19.70;99339.00;;;;2077681;28;20224;-53
2023/01/13 00:02:55;;;;;;;20.93;18.03;;;;;19.70;99349.00;;;;2079167;28;25001;-53
2023/01/13 00:03:55;;;;;;;20.80;18.03;;;;;19.70;99337.00;;;;2079042;28;20283;-53
2023/01/13 00:04:56;;;;;;;21.80;17.10;;;;;19.70;99342.00;;;;2079057;28;20357;-53
2023/01/13 00:05:58;;;;;;;20.23;15.73;;;;;19.70;99346.00;;;;2076037;28;20225;-53
2023/01/13 00:06:58;;;;;;;24.92;20.58;;;;;19.70;99337.00;;;;2070726;28;20637;-53
2023/01/13 00:07:58;;;;;;;26.37;20.70;;;;;19.80;99341.00;;;;2070357;28;20249;-53
2023/01/13 00:08:59;;;;;;;24.60;21.57;;;;;19.80;99352.00;;;;2069731;28;20214;-54
2023/01/13 00:09:59;;;;;;;24.90;19.80;;;;;19.80;99329.00;;;;2069161;28;20282;-53
2023/01/13 00:10:59;;;;;;;24.50;19.97;;;;;19.80;99352.00;;;;2070899;28;20276;-52
2023/01/13 00:12:00;;;;;;;23.17;17.50;;;;;19.80;99341.00;;;;2069116;28;20214;-52
2023/01/13 00:13:01;;;;;;;21.77;17.73;;;;;19.80;99361.00;;;;2070045;28;20214;-52
2023/01/13 00:14:01;;;;;;;19.13;14.80;;;;;19.80;99336.00;;;;2071048;28;20218;-52
2023/01/13 00:15:01;;;;;;;17.10;13.33;;;;;19.70;99345.00;;;;2070621;28;20461;-53
2023/01/13 00:16:06;;;;;;;14.60;12.70;;;;;19.70;99333.00;;;;2071115;28;20275;-53
2023/01/13 00:17:06;;;;;;;14.93;12.18;;;;;19.70;99330.00;;;;2070877;28;20237;-52
2023/01/13 00:18:06;;;;;;;14.47;11.20;;;;;19.70;99324.00;;;;2071085;28;20690;-52
2023/01/13 00:19:07;;;;;;;13.47;11.80;;;;;19.70;99314.00;;;;2070962;28;20562;-52
2023/01/13 00:20:10;;;;;;;15.13;11.17;;;;;19.70;99319.00;;;;2071016;28;20217;-53
2023/01/13 00:21:15;;;;;;;11.82;10.25;;;;;19.70;99320.00;;;;2070439;28;20217;-52
2023/01/13 00:22:16;;;;;;;13.73;11.07;;;;;19.60;99309.00;;;;2069551;28;20211;-53
2023/01/13 00:23:16;;;;;;;12.13;9.40;;;;;19.70;99326.00;;;;2070796;28;20237;-53
2023/01/13 00:24:16;;;;;;;11.93;9.87;;;;;19.60;99320.00;;;;2071220;28;20237;-52
2023/01/13 00:25:17;;;;;;;11.90;10.30;;;;;19.70;99320.00;;;;2072195;28;20206;-52
2023/01/13 00:26:19;;;;;;;9.80;8.60;;;;;19.60;99337.00;;;;2070271;28;20349;-53
2023/01/13 00:27:21;;;;;;;9.05;8.13;;;;;19.70;99335.00;;;;2070298;28;20233;-53
2023/01/13 00:28:21;;;;;;;10.70;8.93;;;;;19.70;99313.00;;;;2070403;28;20296;-54
2023/01/13 00:29:22;;;;;;;9.93;8.20;;;;;19.70;99327.00;;;;2070988;28;20229;-53
2023/01/13 00:30:22;;;;;;;11.53;8.40;;;;;19.60;99326.00;;;;2070920;28;20286;-53
2023/01/13 00:31:22;;;;;;;11.30;8.60;;;;;19.70;99333.00;;;;2070354;28;20202;-52
2023/01/13 00:32:23;;;;;;;10.53;8.53;;;;;19.70;99327.00;;;;2069379;28;20206;-53
2023/01/13 00:33:23;;;;;;;9.00;7.60;;;;;19.60;99323.00;;;;2071015;28;20241;-53
2023/01/13 00:34:24;;;;;;;8.80;7.37;;;;;19.60;99343.00;;;;2070691;28;20237;-54
2023/01/13 00:35:24;;;;;;;8.10;7.30;;;;;19.60;99321.00;;;;2070333;28;20198;-54
2023/01/13 00:36:24;;;;;;;7.50;5.90;;;;;19.60;99314.00;;;;2070556;28;20760;-53
2023/01/13 00:37:25;;;;;;;7.07;6.37;;;;;19.60;99315.00;;;;2069779;28;20756;-53
2023/01/13 00:38:25;;;;;;;6.83;5.63;;;;;19.60;99322.00;;;;2069975;28;20202;-53
2023/01/13 00:39:26;;;;;;;8.03;6.87;;;;;19.70;99326.00;;;;2070941;28;20667;-53
2023/01/13 00:40:26;;;;;;;6.70;5.63;;;;;19.70;99318.00;;;;2070772;28;20215;-53
2023/01/13 00:41:26;;;;;;;7.33;5.60;;;;;19.60;99318.00;;;;2070551;28;20264;-53
2023/01/13 00:43:46;;;;;;;6.68;5.07;;;;;19.60;99319.00;;;;2070340;28;20226;-53
2023/01/13 00:44:46;;;;;;;7.20;5.57;;;;;19.60;99324.00;;;;2070507;28;20253;-54
2023/01/13 00:45:46;;;;;;;7.70;5.67;;;;;19.60;99332.00;;;;2070764;28;20716;-54
2023/01/13 00:46:47;;;;;;;6.40;5.60;;;;;19.60;99335.00;;;;2070901;28;20269;-53
2023/01/13 00:47:47;;;;;;;7.00;5.43;;;;;19.60;99334.00;;;;2070254;28;20269;-53
2023/01/13 00:48:48;;;;;;;6.63;5.03;;;;;19.60;99332.00;;;;2070830;28;20242;-54
2023/01/13 00:49:49;;;;;;;6.68;4.90;;;;;19.60;99334.00;;;;2070897;28;20214;-53
2023/01/13 00:50:58;;;;;;;5.80;4.80;;;;;19.60;99343.00;;;;2070812;28;20210;-54
2023/01/13 00:51:59;;;;;;;5.57;4.32;;;;;19.60;99337.00;;;;2068014;28;20214;-54
2023/01/13 00:52:59;;;;;;;6.03;4.73;;;;;19.60;99332.00;;;;2070189;28;20222;-53
2023/01/13 00:54:00;;;;;;;5.90;4.93;;;;;19.60;99330.00;;;;2070763;28;20210;-53
2023/01/13 00:55:00;;;;;;;6.40;4.10;;;;;19.60;99324.00;;;;2070399;28;20765;-53
2023/01/13 00:56:01;;;;;;;5.30;4.03;;;;;19.60;99329.00;;;;2070357;28;20576;-53
2023/01/13 00:57:02;;;;;;;5.57;3.75;;;;;19.60;99337.00;;;;2070368;28;21046;-53
2023/01/13 00:58:03;;;;;;;6.55;3.72;;;;;19.60;99335.00;;;;2070353;28;20689;-54
2023/01/13 00:59:03;;;;;;;5.43;4.20;;;;;19.60;99327.00;;;;2070864;28;20218;-54
2023/01/13 01:00:04;;;;;;;4.70;3.83;;;;;19.60;99322.00;;;;2070397;28;20503;-54
2023/01/13 01:01:06;;;;;;;4.50;3.83;;;;;19.60;99328.00;;;;2070308;28;20614;-54
2023/01/13 01:02:06;;;;;;;5.30;3.47;;;;;19.60;99328.00;;;;2067903;28;20241;-53
2023/01/13 01:03:11;;;;;;;3.93;3.47;;;;;19.60;99332.00;;;;2070796;28;20214;-54
2023/01/13 01:04:11;;;;;;;5.93;3.72;;;;;19.60;99341.00;;;;2075252;28;20226;-53
2023/01/13 01:05:11;;;;;;;5.20;3.10;;;;;19.60;99323.00;;;;2079145;28;20974;-53
2023/01/13 01:06:14;;;;;;;3.87;3.37;;;;;19.60;99329.00;;;;2079137;28;20249;-54
2023/01/13 01:07:14;;;;;;;3.20;2.75;;;;;19.60;99326.00;;;;2079123;28;20217;-53
2023/01/13 01:08:14;;;;;;;4.93;3.50;;;;;19.60;99330.00;;;;2079026;28;20279;-53
2023/01/13 01:09:15;;;;;;;3.10;2.57;;;;;19.60;99319.00;;;;2078751;28;20224;-53
2023/01/13 01:10:15;;;;;;;4.60;3.30;;;;;19.60;99306.00;;;;2077680;28;20244;-53
2023/01/13 01:11:18;;;;;;;4.23;3.00;;;;;19.50;99310.00;;;;2074350;28;20696;-53
2023/01/13 01:12:19;;;;;;;3.40;2.40;;;;;19.50;99321.00;;;;2067223;28;20592;-53
2023/01/13 01:13:19;;;;;;;3.80;2.67;;;;;19.30;99318.00;;;;2069161;28;20226;-54
2023/01/13 01:14:19;;;;;;;3.53;3.13;;;;;19.50;99322.00;;;;2067000;28;20229;-54
2023/01/13 01:15:20;;;;;;;3.23;2.60;;;;;19.50;99330.00;;;;2074164;28;20248;-54
2023/01/13 01:16:21;;;;;;;2.80;2.30;;;;;19.50;99328.00;;;;2078363;28;20229;-55
2023/01/13 01:17:21;;;;;;;3.22;2.42;;;;;19.50;99322.00;;;;2078664;28;20577;-54
2023/01/13 01:18:21;;;;;;;4.93;2.40;;;;;19.50;99331.00;;;;2078613;28;20209;-53
2023/01/13 01:19:22;;;;;;;3.30;2.40;;;;;19.50;99328.00;;;;2077741;28;20570;-53
2023/01/13 01:20:22;;;;;;;4.17;2.83;;;;;19.50;99328.00;;;;2078451;28;20677;-55
2023/01/13 01:21:23;;;;;;;3.13;2.37;;;;;19.50;99323.00;;;;2077454;28;20228;-55
2023/01/13 01:22:24;;;;;;;3.20;2.40;;;;;19.50;99330.00;;;;2068177;28;20904;-54
2023/01/13 01:23:24;;;;;;;4.20;2.90;;;;;19.50;99311.00;;;;2077418;28;20272;-54
2023/01/13 01:24:24;;;;;;;3.10;2.20;;;;;19.50;99315.00;;;;2077055;28;20209;-56
2023/01/13 01:25:25;;;;;;;3.00;1.83;;;;;19.50;99305.00;;;;2070282;28;20309;-55
2023/01/13 01:26:26;;;;;;;3.73;2.37;;;;;19.50;99300.00;;;;2070782;28;20809;-56
2023/01/13 01:27:26;;;;;;;3.57;2.27;;;;;19.50;99293.00;;;;2070840;28;20703;-55
2023/01/13 01:28:26;;;;;;;3.47;2.40;;;;;19.50;99297.00;;;;2070019;28;20449;-55
2023/01/13 01:29:27;;;;;;;2.73;2.10;;;;;19.40;99306.00;;;;2069876;28;20324;-54
2023/01/13 01:30:27;;;;;;;3.10;2.13;;;;;19.50;99317.00;;;;2070473;28;20210;-54
2023/01/13 01:31:32;;;;;;;3.93;2.30;;;;;19.50;99319.00;;;;2074026;28;20210;-55
2023/01/13 01:32:33;;;;;;;3.85;2.13;;;;;19.50;99318.00;;;;2077747;28;20244;-54
2023/01/13 01:33:33;;;;;;;2.77;2.00;;;;;19.50;99326.00;;;;2078657;28;20210;-54
2023/01/13 01:34:34;;;;;;;3.10;2.00;;;;;19.50;99346.00;;;;2078582;28;20452;-55
2023/01/13 01:35:38;;;;;;;3.43;2.13;;;;;19.40;99342.00;;;;2077729;28;20201;-54
2023/01/13 01:36:38;;;;;;;2.88;1.75;;;;;19.50;99347.00;;;;2078365;28;20225;-53
2023/01/13 01:37:39;;;;;;;4.43;2.00;;;;;19.50;99356.00;;;;2078922;28;20244;-53
2023/01/13 01:38:39;;;;;;;3.03;1.97;;;;;19.40;99351.00;;;;2078907;28;20220;-53
2023/01/13 01:39:39;;;;;;;3.67;1.93;;;;;19.40;99342.00;;;;2078633;28;20209;-53
2023/01/13 01:40:40;;;;;;;3.10;2.20;;;;;19.40;99353.00;;;;2078570;28;20214;-55
2023/01/13 01:43:57;;;;;;;3.30;2.13;;;;;19.40;99357.00;;;;2078586;28;20304;-55
2023/01/13 01:44:41;;;;;;;3.17;1.83;;;;;19.40;99363.00;;;;2070507;28;20222;-54
2023/01/13 01:45:41;;;;;;;4.10;2.20;;;;;19.40;99363.00;;;;2075886;28;20951;-54
2023/01/13 01:46:42;;;;;;;3.90;1.70;;;;;19.40;99353.00;;;;2078483;28;20255;-55
2023/01/13 01:47:43;;;;;;;8.53;1.50;;;;;19.30;99350.00;;;;2078836;28;20229;-53
2023/01/13 01:48:43;;;;;;;6.30;1.93;;;;;19.30;99350.00;;;;2069886;28;20487;-54
2023/01/13 01:49:44;;;;;;;3.70;1.97;;;;;19.50;99353.00;;;;2070020;28;20293;-54
2023/01/13 01:50:44;;;;;;;3.43;1.50;;;;;19.50;99354.00;;;;2078779;28;20228;-53
2023/01/13 01:51:53;;;;;;;3.30;1.70;;;;;19.50;99345.00;;;;2078011;28;20225;-54
2023/01/13 01:52:56;;;;;;;4.53;1.52;;;;;19.50;99343.00;;;;2078495;28;20591;-59
2023/01/13 01:53:57;;;;;;;5.20;1.92;;;;;19.50;99361.00;;;;2077777;28;20222;-53
2023/01/13 01:55:04;;;;;;;2.23;1.60;;;;;19.50;99347.00;;;;2070016;28;20237;-53
2023/01/13 01:56:04;;;;;;;4.28;2.10;;;;;19.50;99355.00;;;;2069683;28;20246;-53
2023/01/13 01:57:05;;;;;;;2.50;1.50;;;;;19.50;99358.00;;;;2068762;28;20269;-54
2023/01/13 01:58:14;;;;;;;5.25;2.30;;;;;19.50;99347.00;;;;2068865;28;20222;-53
2023/01/13 01:59:14;;;;;;;2.83;1.70;;;;;19.50;99356.00;;;;2062326;28;21259;-53
2023/01/13 02:00:14;;;;;;;4.63;1.90;;;;;19.50;99362.00;;;;2061177;28;20222;-53
2023/01/13 02:01:15;;;;;;;5.90;1.90;;;;;19.40;99375.00;;;;2069053;28;20222;-53
2023/01/13 02:02:15;;;;;;;4.77;2.13;;;;;19.40;99360.00;;;;2075377;28;20218;-53
2023/01/13 02:03:16;;;;;;;5.50;1.70;;;;;19.50;99364.00;;;;2063441;28;20242;-54
2023/01/13 02:04:19;;;;;;;4.30;1.70;;;;;19.40;99364.00;;;;2060851;28;20233;-53
2023/01/13 02:05:21;;;;;;;4.00;1.65;;;;;19.40;99361.00;;;;2061024;28;20741;-53
2023/01/13 02:06:21;;;;;;;5.85;2.15;;;;;19.50;99364.00;;;;2066321;28;20214;-53
2023/01/13 02:07:23;;;;;;;4.17;1.80;;;;;19.50;99361.00;;;;2077507;28;20225;-53
2023/01/13 02:08:24;;;;;;;5.50;1.60;;;;;19.40;99351.00;;;;2069718;28;20230;-53
2023/01/13 02:09:25;;;;;;;3.63;1.70;;;;;19.40;99362.00;;;;2073912;28;20299;-53
2023/01/13 02:10:26;;;;;;;6.30;1.60;;;;;19.40;99349.00;;;;2069969;28;20214;-54
2023/01/13 02:12:53;;;;;;;2.97;1.40;;;;;19.40;99350.00;;;;2075581;28;20214;-53
2023/01/13 02:13:53;;;;;;;4.23;1.80;;;;;19.40;99352.00;;;;2071150;28;20237;-53
2023/01/13 02:15:13;;;;;;;6.97;2.10;;;;;19.40;99349.00;;;;2071392;28;20453;-53
2023/01/13 02:16:16;;;;;;;3.92;1.50;;;;;19.40;99341.00;;;;2076813;28;20221;-53
2023/01/13 02:17:34;;;;;;;3.83;1.80;;;;;19.40;99343.00;;;;2073428;28;20276;-53
2023/01/13 02:18:52;;;;;;;5.05;1.70;;;;;19.40;99357.00;;;;2076736;28;20796;-53
2023/01/13 02:20:24;;;;;;;4.20;1.55;;;;;19.40;99354.00;;;;2080423;28;20621;-53
2023/01/13 02:21:27;;;;;;;6.88;1.70;;;;;19.40;99353.00;;;;2080023;28;20583;-53
2023/01/13 02:22:51;;;;;;;3.95;1.40;;;;;19.40;99361.00;;;;2077768;28;20210;-53
2023/01/13 02:25:43;;;;;;;3.58;1.30;;;;;19.40;99355.00;;;;2070219;28;20245;-53
2023/01/13 02:26:55;;;;;;;5.43;2.00;;;;;19.30;99356.00;;;;2069133;28;20225;-53
2023/01/13 02:27:57;;;;;;;4.40;1.65;;;;;19.30;99360.00;;;;2072805;28;20214;-53
2023/01/13 02:32:34;;;;;;;3.30;1.30;;;;;19.30;99353.00;;;;2044616;28;20692;-53
2023/01/13 02:33:40;;;;;;;3.97;1.65;;;;;19.30;99338.00;;;;2049033;28;20283;-53
2023/01/13 02:34:43;;;;;;;3.67;1.52;;;;;19.40;99346.00;;;;2054353;28;20220;-53
2023/01/13 02:36:00;;;;;;;2.75;1.15;;;;;19.40;99359.00;;;;2054229;28;20216;-53
2023/01/13 02:37:10;;;;;;;4.55;1.70;;;;;19.40;99346.00;;;;2069417;28;20214;-52
2023/01/13 02:38:10;;;;;;;5.65;1.63;;;;;19.30;99351.00;;;;2070842;28;20722;-54
2023/01/13 02:39:25;;;;;;;4.43;1.40;;;;;19.30;99354.00;;;;2071172;28;20221;-53
2023/01/13 02:40:30;;;;;;;4.28;1.73;;;;;19.30;99348.00;;;;2070813;28;20568;-53
2023/01/13 02:44:52;;;;;;;3.58;1.40;;;;;19.30;99347.00;;;;2069370;28;20301;-53
2023/01/13 02:46:02;;;;;;;4.97;1.40;;;;;19.30;99364.00;;;;2067705;28;20244;-54
2023/01/13 02:47:07;;;;;;;2.97;1.40;;;;;19.30;99344.00;;;;2064159;28;20262;-53
2023/01/13 02:48:07;;;;;;;5.15;1.75;;;;;19.30;99357.00;;;;2063003;28;20302;-53
2023/01/13 02:49:10;;;;;;;3.33;1.47;;;;;19.30;99349.00;;;;2054679;28;20208;-53
2023/01/13 02:50:13;;;;;;;5.28;1.65;;;;;19.30;99363.00;;;;2060127;28;20221;-53
2023/01/13 02:51:17;;;;;;;5.03;1.40;;;;;19.30;99349.00;;;;2070026;28;20298;-53
2023/01/13 02:52:24;;;;;;;3.75;1.35;;;;;19.30;99356.00;;;;2061778;28;20230;-53
2023/01/13 02:53:28;;;;;;;4.32;1.73;;;;;19.30;99361.00;;;;2077265;28;20271;-53
2023/01/13 02:54:28;;;;;;;3.33;1.38;;;;;19.30;99352.00;;;;2067321;28;20612;-52
2023/01/13 02:55:33;;;;;;;4.40;1.23;;;;;19.30;99355.00;;;;2062581;28;20218;-53
2023/01/13 02:56:37;;;;;;;3.55;1.30;;;;;19.30;99349.00;;;;2057876;28;20714;-54
2023/01/13 02:57:37;;;;;;;3.10;1.33;;;;;19.30;99346.00;;;;2055413;28;20230;-53
2023/01/13 02:58:37;;;;;;;3.13;1.50;;;;;19.30;99331.00;;;;2063336;28;20219;-53
2023/01/13 02:59:38;;;;;;;5.50;1.60;;;;;19.30;99352.00;;;;2070933;28;20206;-53
2023/01/13 03:00:38;;;;;;;5.90;1.30;;;;;19.30;99343.00;;;;2062979;28;20340;-53
2023/01/13 03:01:39;;;;;;;4.20;1.30;;;;;19.30;99337.00;;;;2078745;28;20217;-53
2023/01/13 03:02:39;;;;;;;3.65;1.20;;;;;19.30;99343.00;;;;2069289;28;20702;-53
2023/01/13 03:03:40;;;;;;;3.40;1.33;;;;;19.30;99348.00;;;;2070850;28;20206;-53
2023/01/13 03:04:48;;;;;;;4.77;1.40;;;;;19.30;99356.00;;;;2079466;28;20239;-53
2023/01/13 03:05:51;;;;;;;3.72;1.17;;;;;19.30;99344.00;;;;2078835;28;20261;-53
2023/01/13 03:07:00;;;;;;;3.97;1.70;;;;;19.30;99355.00;;;;2070426;28;20218;-53
2023/01/13 03:08:18;;;;;;;3.63;1.55;;;;;19.30;99365.00;;;;2072390;28;20228;-54
2023/01/13 03:09:21;;;;;;;7.07;1.80;;;;;19.30;99354.00;;;;2073613;28;20227;-53
2023/01/13 03:10:50;;;;;;;4.68;1.40;;;;;19.30;99356.00;;;;2070642;28;20622;-52
2023/01/13 03:11:58;;;;;;;3.42;1.45;;;;;19.30;99356.00;;;;2073300;28;20213;-53
2023/01/13 03:13:00;;;;;;;4.57;1.20;;;;;19.30;99349.00;;;;2078612;28;20331;-53
2023/01/13 03:14:13;;;;;;;4.78;1.38;;;;;19.30;99358.00;;;;2078663;28;20334;-53
2023/01/13 03:15:20;;;;;;;3.67;1.08;;;;;19.20;99347.00;;;;2078461;28;20221;-53
2023/01/13 03:16:39;;;;;;;3.95;1.70;;;;;19.20;99350.00;;;;2078277;28;20701;-53
2023/01/13 03:18:19;;;;;;;2.70;1.20;;;;;19.20;99351.00;;;;2078267;28;20266;-53
2023/01/13 03:19:45;;;;;;;4.07;1.33;;;;;19.20;99338.00;;;;2053763;28;20751;-53
2023/01/13 03:20:52;;;;;;;2.92;1.17;;;;;19.20;99341.00;;;;2064874;28;20312;-52
2023/01/13 03:22:21;;;;;;;4.40;1.40;;;;;19.20;99339.00;;;;2060100;28;20218;-53
2023/01/13 03:23:28;;;;;;;4.43;1.33;;;;;19.30;99334.00;;;;2073449;28;20991;-54
2023/01/13 03:24:39;;;;;;;2.20;0.95;;;;;19.20;99333.00;;;;2067853;28;20211;-52
2023/01/13 03:25:49;;;;;;;5.55;1.45;;;;;19.20;99326.00;;;;2069473;28;20715;-53
2023/01/13 03:26:53;;;;;;;2.53;1.08;;;;;19.20;99325.00;;;;2071882;28;20305;-53
2023/01/13 03:28:07;;;;;;;3.45;1.15;;;;;19.20;99332.00;;;;2071560;28;20222;-53
2023/01/13 03:29:10;;;;;;;3.35;1.05;;;;;19.20;99339.00;;;;2078618;28;20586;-53
2023/01/13 03:30:22;;;;;;;4.00;1.17;;;;;19.20;99330.00;;;;2078907;28;20700;-53
2023/01/13 03:31:24;;;;;;;2.40;0.95;;;;;19.20;99332.00;;;;2078516;28;20214;-53
2023/01/13 03:32:45;;;;;;;4.72;1.48;;;;;19.20;99333.00;;;;2069093;28;20220;-53
2023/01/13 03:33:56;;;;;;;3.25;0.98;;;;;19.20;99331.00;;;;2072425;28;20226;-53
2023/01/13 03:35:13;;;;;;;4.05;1.20;;;;;19.20;99345.00;;;;2071280;28;20250;-53
2023/01/13 03:36:15;;;;;;;4.85;1.33;;;;;19.20;99328.00;;;;2072148;28;20349;-53
2023/01/13 03:37:16;;;;;;;2.13;1.02;;;;;19.20;99334.00;;;;2061839;28;20867;-53
2023/01/13 03:38:18;;;;;;;2.92;1.20;;;;;19.20;99338.00;;;;2062429;28;20751;-53
2023/01/13 03:39:21;;;;;;;3.65;1.25;;;;;19.20;99342.00;;;;2070067;28;20280;-53
2023/01/13 03:40:25;;;;;;;4.55;1.15;;;;;19.10;99337.00;;;;2070847;28;20404;-53
2023/01/13 03:41:40;;;;;;;2.53;1.10;;;;;19.10;99338.00;;;;2071000;28;20211;-53
2023/01/13 03:44:20;;;;;;;2.83;1.02;;;;;19.10;99320.00;;;;2077185;28;20205;-56
2023/01/13 03:44:22;;;;;;;3.20;1.00;;;;;19.10;99330.00;;;;2078529;28;20217;-52
2023/01/13 03:45:23;;;;;;;4.40;1.33;;;;;19.20;99338.00;;;;2079226;28;20213;-53
2023/01/13 03:46:31;;;;;;;1.90;0.70;;;;;19.10;99325.00;;;;2079283;28;20274;-53
2023/01/13 03:47:41;;;;;;;4.15;1.20;;;;;19.20;99326.00;;;;2070656;28;20273;-53
2023/01/13 03:48:41;;;;;;;3.15;0.80;;;;;19.20;99337.00;;;;2071606;28;20218;-53
2023/01/13 03:49:51;;;;;;;2.90;0.90;;;;;19.20;99296.00;;;;2069925;28;20214;-53
2023/01/13 03:50:52;;;;;;;6.15;1.33;;;;;19.20;99336.00;;;;2071661;28;20217;-53
2023/01/13 03:51:57;;;;;;;2.60;1.13;;;;;19.10;99332.00;;;;2061114;28;20325;-53
2023/01/13 03:53:00;;;;;;;3.33;1.10;;;;;19.10;99326.00;;;;2070163;28;20225;-53
2023/01/13 03:54:03;;;;;;;3.65;1.05;;;;;19.10;99324.00;;;;2078550;28;20297;-53
2023/01/13 03:55:13;;;;;;;3.50;0.90;;;;;19.10;99332.00;;;;2070641;28;20218;-53
2023/01/13 03:56:46;;;;;;;3.30;0.95;;;;;19.20;99342.00;;;;2078242;28;20245;-53
2023/01/13 03:58:13;;;;;;;3.63;1.25;;;;;19.10;99337.00;;;;2074462;28;20316;-53
2023/01/13 03:59:16;;;;;;;3.65;1.10;;;;;19.10;99331.00;;;;2073969;28;20701;-55
2023/01/13 04:00:17;;;;;;;3.67;1.33;;;;;19.10;99326.00;;;;2078532;28;20224;-53
2023/01/13 04:01:20;;;;;;;2.27;1.20;;;;;19.10;99337.00;;;;2070636;28;20214;-53
2023/01/13 04:02:50;;;;;;;3.25;1.55;;;;;19.10;99334.00;;;;2069827;28;20456;-53
2023/01/13 04:03:56;;;;;;;3.45;1.10;;;;;19.10;99326.00;;;;2074882;28;20723;-54
2023/01/13 04:05:01;;;;;;;4.18;1.20;;;;;19.10;99326.00;;;;2071019;28;20226;-53
2023/01/13 04:06:16;;;;;;;3.30;1.27;;;;;19.10;99338.00;;;;2070261;28;20632;-53
2023/01/13 04:07:30;;;;;;;4.05;1.20;;;;;19.10;99330.00;;;;2058247;28;20211;-53
2023/01/13 04:08:30;;;;;;;3.65;1.10;;;;;19.10;99327.00;;;;2065790;28;21029;-53
2023/01/13 04:09:48;;;;;;;2.07;1.17;;;;;19.10;99338.00;;;;2055805;28;20305;-54
2023/01/13 04:10:57;;;;;;;6.13;1.13;;;;;19.10;99329.00;;;;2058918;28;20295;-53
2023/01/13 04:12:23;;;;;;;3.38;1.00;;;;;19.10;99341.00;;;;2071246;28;20232;-53
2023/01/13 04:13:25;;;;;;;2.22;1.10;;;;;19.10;99327.00;;;;2064416;28;20369;-53
2023/01/13 04:14:25;;;;;;;3.35;1.10;;;;;19.10;99326.00;;;;2070327;28;20203;-53
2023/01/13 04:15:28;;;;;;;3.03;1.03;;;;;19.10;99329.00;;;;2062155;28;20230;-53
2023/01/13 04:16:28;;;;;;;4.65;1.10;;;;;19.10;99328.00;;;;2070271;28;20268;-53
2023/01/13 04:17:29;;;;;;;3.73;1.00;;;;;19.10;99322.00;;;;2078628;28;20275;-53
2023/01/13 04:18:29;;;;;;;2.63;1.53;;;;;19.10;99331.00;;;;2070091;28;20213;-53
2023/01/13 04:19:31;;;;;;;3.27;1.00;;;;;19.10;99331.00;;;;2078546;28;20236;-54
2023/01/13 04:20:32;;;;;;;4.38;0.98;;;;;19.10;99334.00;;;;2079194;28;20228;-53
2023/01/13 04:21:32;;;;;;;4.90;1.37;;;;;19.10;99334.00;;;;2078949;28;20565;-53
2023/01/13 04:22:32;;;;;;;4.30;1.07;;;;;19.10;99334.00;;;;2076858;28;20866;-53
2023/01/13 04:23:33;;;;;;;3.53;1.00;;;;;19.10;99330.00;;;;2078111;28;20675;-53
2023/01/13 04:24:33;;;;;;;4.30;1.00;;;;;19.10;99325.00;;;;2077505;28;20650;-53
2023/01/13 04:25:33;;;;;;;3.23;0.80;;;;;19.00;99318.00;;;;2070362;28;20206;-53
2023/01/13 04:26:34;;;;;;;1.83;1.00;;;;;19.00;99326.00;;;;2070024;28;20236;-53
2023/01/13 04:27:34;;;;;;;3.20;1.17;;;;;19.10;99326.00;;;;2070993;28;20294;-53
2023/01/13 04:28:34;;;;;;;4.00;1.20;;;;;19.10;99344.00;;;;2071150;28;20206;-53
2023/01/13 04:29:34;;;;;;;3.13;0.90;;;;;19.10;99320.00;;;;2070856;28;20237;-52
2023/01/13 04:30:35;;;;;;;2.83;1.00;;;;;19.10;99325.00;;;;2071159;28;20214;-52
2023/01/13 04:31:37;;;;;;;2.93;1.00;;;;;19.00;99333.00;;;;2070943;28;20621;-54
2023/01/13 04:32:37;;;;;;;3.33;1.33;;;;;19.00;99318.00;;;;2074049;28;20222;-54
2023/01/13 04:33:37;;;;;;;2.30;0.93;;;;;19.10;99327.00;;;;2078593;28;20686;-53
2023/01/13 04:34:37;;;;;;;4.23;1.00;;;;;19.10;99323.00;;;;2079015;28;20610;-53
2023/01/13 04:35:38;;;;;;;3.23;1.17;;;;;19.00;99321.00;;;;2079296;28;20592;-53
2023/01/13 04:36:38;;;;;;;3.10;0.97;;;;;19.10;99324.00;;;;2078774;28;20704;-53
2023/01/13 04:37:39;;;;;;;3.57;1.10;;;;;19.00;99322.00;;;;2078786;28;20217;-53
2023/01/13 04:38:39;;;;;;;3.33;1.03;;;;;19.00;99323.00;;;;2078992;28;20218;-53
2023/01/13 04:39:39;;;;;;;2.80;1.00;;;;;19.00;99323.00;;;;2078742;28;20217;-53
2023/01/13 04:40:40;;;;;;;2.70;1.17;;;;;19.00;99311.00;;;;2079057;28;20239;-53
2023/01/13 04:42:00;;;;;;;2.50;1.13;;;;;19.00;99315.00;;;;2079089;28;20327;-53
2023/01/13 04:43:00;;;;;;;1.92;0.82;;;;;19.00;99315.00;;;;2077847;28;20448;-53
2023/01/13 04:44:00;;;;;;;3.00;0.90;;;;;19.00;99319.00;;;;2079088;28;20235;-53
2023/01/13 04:45:01;;;;;;;2.83;1.00;;;;;19.00;99321.00;;;;2079104;28;20205;-54
2023/01/13 04:46:01;;;;;;;3.13;0.93;;;;;19.00;99314.00;;;;2079097;28;20209;-53
2023/01/13 04:47:01;;;;;;;3.70;1.20;;;;;19.00;99317.00;;;;2078988;28;20209;-53
2023/01/13 04:48:02;;;;;;;3.40;1.40;;;;;19.00;99323.00;;;;2078610;28;20697;-53
2023/01/13 04:49:02;;;;;;;4.30;0.80;;;;;19.00;99321.00;;;;2078925;28;20205;-53
2023/01/13 04:50:03;;;;;;;2.97;1.03;;;;;19.00;99326.00;;;;2077448;28;20724;-53
2023/01/13 04:51:03;;;;;;;2.10;0.90;;;;;19.00;99326.00;;;;2077920;28;20352;-53
2023/01/13 04:52:05;;;;;;;5.63;1.43;;;;;19.00;99327.00;;;;2076843;28;20218;-53
2023/01/13 04:53:06;;;;;;;4.38;1.15;;;;;19.00;99331.00;;;;2077899;28;20689;-53
2023/01/13 04:54:07;;;;;;;4.63;1.20;;;;;19.00;99335.00;;;;2077932;28;20234;-53
2023/01/13 04:55:08;;;;;;;3.20;0.95;;;;;19.00;99328.00;;;;2078658;28;20225;-53
2023/01/13 04:56:08;;;;;;;2.23;0.90;;;;;19.00;99341.00;;;;2078371;28;20217;-53
2023/01/13 04:57:09;;;;;;;4.07;1.20;;;;;19.00;99326.00;;;;2078586;28;20225;-53
2023/01/13 04:58:09;;;;;;;4.50;1.27;;;;;19.00;99334.00;;;;2078319;28;20239;-53
2023/01/13 04:59:10;;;;;;;3.20;1.60;;;;;19.00;99337.00;;;;2077888;28;20249;-53
2023/01/13 05:00:12;;;;;;;3.70;1.13;;;;;19.00;99330.00;;;;2077203;28;20296;-53
2023/01/13 05:01:12;;;;;;;5.43;1.00;;;;;19.00;99333.00;;;;2068995;28;21263;-53
2023/01/13 05:02:18;;;;;;;4.80;1.00;;;;;19.00;99344.00;;;;2075810;28;20225;-53
2023/01/13 05:03:19;;;;;;;4.22;1.15;;;;;19.00;99335.00;;;;2069565;28;20670;-53
2023/01/13 05:04:19;;;;;;;6.27;1.10;;;;;18.90;99347.00;;;;2069430;28;20222;-53
2023/01/13 05:05:19;;;;;;;4.63;1.43;;;;;19.00;99335.00;;;;2070164;28;20808;-53
2023/01/13 05:06:20;;;;;;;4.30;1.10;;;;;19.00;99334.00;;;;2070559;28;20221;-53
2023/01/13 05:07:20;;;;;;;3.43;1.10;;;;;19.00;99339.00;;;;2070340;28;20209;-53
2023/01/13 05:08:20;;;;;;;2.53;1.10;;;;;19.00;99339.00;;;;2071744;28;20365;-53
2023/01/13 05:09:20;;;;;;;5.33;1.20;;;;;19.00;99336.00;;;;2078633;28;20205;-53
2023/01/13 05:10:21;;;;;;;3.00;1.00;;;;;19.00;99337.00;;;;2078491;28;20206;-52
2023/01/13 05:18:15;;;;;;;3.90;1.38;;;;;18.90;99320.00;;;;2051412;28;20219;-53
2023/01/13 05:19:15;;;;;;;6.50;1.53;;;;;18.90;99321.00;;;;2056251;28;20218;-53
2023/01/13 05:20:17;;;;;;;2.90;0.90;;;;;18.90;99316.00;;;;2060589;28;20458;-53
2023/01/13 05:25:23;;;;;;;4.75;1.55;;;;;18.90;99312.00;;;;2070200;28;20225;-52
2023/01/13 05:26:24;;;;;;;2.65;0.90;;;;;18.90;99316.00;;;;2070454;28;20763;-52
2023/01/13 05:27:24;;;;;;;5.13;1.30;;;;;18.90;99322.00;;;;2070455;28;20280;-53
2023/01/13 05:28:24;;;;;;;4.00;1.00;;;;;18.90;99315.00;;;;2070345;28;20861;-52
2023/01/13 05:29:25;;;;;;;3.83;1.20;;;;;18.90;99325.00;;;;2070354;28;20218;-53
2023/01/13 05:30:27;;;;;;;2.80;1.10;;;;;18.90;99328.00;;;;2076377;28;20217;-53
2023/01/13 05:31:27;;;;;;;3.92;1.30;;;;;18.90;99332.00;;;;2077673;28;20267;-55
2023/01/13 05:32:27;;;;;;;3.50;0.97;;;;;18.90;99342.00;;;;2077072;28;20202;-55
2023/01/13 05:33:28;;;;;;;2.03;1.03;;;;;18.90;99343.00;;;;2078299;28;20281;-53
2023/01/13 05:34:28;;;;;;;3.23;1.20;;;;;18.90;99328.00;;;;2078292;28;20212;-53
2023/01/13 05:35:28;;;;;;;4.50;1.53;;;;;18.90;99333.00;;;;2078546;28;20212;-53
2023/01/13 05:36:29;;;;;;;4.70;1.40;;;;;18.90;99345.00;;;;2078466;28;20308;-53
2023/01/13 05:37:29;;;;;;;3.50;1.20;;;;;18.90;99338.00;;;;2078735;28;20689;-53
2023/01/13 05:38:29;;;;;;;3.63;1.30;;;;;18.90;99341.00;;;;2078934;28;20205;-53
2023/01/13 05:43:18;;;;;;;3.43;0.90;;;;;18.90;99342.00;;;;2078844;28;20206;-53
2023/01/13 05:43:28;;;;;;;6.28;1.40;;;;;18.90;99340.00;;;;2078753;28;20652;-53
2023/01/13 05:44:28;;;;;;;6.07;1.50;;;;;18.90;99333.00;;;;2078808;28;20221;-52
2023/01/13 05:45:29;;;;;;;3.37;1.10;;;;;18.90;99336.00;;;;2077634;28;20716;-58